Time;durP1;ratioP1;P1;durP2;ratioP2;P2;SDS_P1;SDS_P2;PMS_P1;PMS_P2;Temp;Humidity;BMP_temperature;BMP_pressure;BME280_temperature;BME280_humidity;BME280_pressure;Samples;Min_cycle;Max_cycle;Signal;HPM_P1;HPM_P2
2023/12/20 00:00:26;;;;;;;12.97;7.23;;;;;;;;;;5063832;28;20180;-87
2023/12/20 00:03:30;;;;;;;12.47;7.57;;;;;;;;;;5063767;28;20175;-87
2023/12/20 00:06:34;;;;;;;9.83;5.73;;;;;;;;;;5063830;28;20699;-87
2023/12/20 00:09:38;;;;;;;6.83;3.70;;;;;;;;;;5041368;28;20176;-88
2023/12/20 00:12:42;;;;;;;6.17;3.30;;;;;;;;;;5052078;28;20183;-87
2023/12/20 00:15:46;;;;;;;4.57;2.67;;;;;;;;;;5063303;28;20692;-87
2023/12/20 00:18:52;;;;;;;4.10;2.93;;;;;;;;;;5042127;28;20506;-87
2023/12/20 00:21:56;;;;;;;5.20;2.67;;;;;;;;;;5057019;28;20184;-87
2023/12/20 00:25:00;;;;;;;4.10;2.30;;;;;;;;;;5067523;28;20625;-87
2023/12/20 00:28:06;;;;;;;3.33;2.50;;;;;;;;;;5067681;28;20211;-87
2023/12/20 00:31:10;;;;;;;3.03;1.87;;;;;;;;;;5068111;28;20179;-87
2023/12/20 00:34:14;;;;;;;3.80;2.10;;;;;;;;;;5066879;28;20184;-87
2023/12/20 00:37:18;;;;;;;3.13;2.20;;;;;;;;;;5055795;28;20219;-87
2023/12/20 00:40:23;;;;;;;2.60;2.10;;;;;;;;;;5068134;28;20183;-87
2023/12/20 00:43:27;;;;;;;2.30;1.83;;;;;;;;;;5067821;28;20176;-87
2023/12/20 00:46:31;;;;;;;2.67;2.00;;;;;;;;;;5067830;28;20215;-87
2023/12/20 00:49:36;;;;;;;2.53;1.73;;;;;;;;;;5056984;28;20513;-87
2023/12/20 00:52:40;;;;;;;2.73;2.13;;;;;;;;;;5067497;28;20179;-87
2023/12/20 00:55:45;;;;;;;2.77;2.10;;;;;;;;;;5080487;28;20214;-87
2023/12/20 00:58:49;;;;;;;5.80;3.17;;;;;;;;;;5079848;28;20176;-87
2023/12/20 01:01:53;;;;;;;12.87;6.70;;;;;;;;;;5067666;28;20183;-88
2023/12/20 01:04:57;;;;;;;16.73;8.50;;;;;;;;;;5067358;28;20184;-88
2023/12/20 01:08:02;;;;;;;12.40;6.27;;;;;;;;;;5055706;28;20695;-87
2023/12/20 01:11:08;;;;;;;6.47;4.80;;;;;;;;;;5079704;28;20180;-87
2023/12/20 01:14:12;;;;;;;5.43;3.50;;;;;;;;;;5067197;28;20179;-87
2023/12/20 01:17:16;;;;;;;3.27;2.10;;;;;;;;;;5055235;28;20215;-87
2023/12/20 01:20:20;;;;;;;3.97;2.13;;;;;;;;;;5055569;28;20535;-88
2023/12/20 01:23:25;;;;;;;2.63;2.00;;;;;;;;;;5067446;28;20179;-87
2023/12/20 01:26:29;;;;;;;5.67;2.60;;;;;;;;;;5067866;28;20218;-87
2023/12/20 01:29:33;;;;;;;4.13;2.37;;;;;;;;;;5055985;28;20207;-87
2023/12/20 01:32:37;;;;;;;5.90;3.17;;;;;;;;;;5066671;28;20181;-87
2023/12/20 01:35:42;;;;;;;5.30;3.03;;;;;;;;;;5054955;28;20223;-88
2023/12/20 01:38:46;;;;;;;5.53;3.10;;;;;;;;;;5067227;28;20628;-87
2023/12/20 01:41:50;;;;;;;6.90;3.50;;;;;;;;;;5055612;28;20175;-87
2023/12/20 01:44:55;;;;;;;7.67;3.60;;;;;;;;;;5078333;28;20180;-87
2023/12/20 01:47:59;;;;;;;6.40;3.20;;;;;;;;;;5066317;28;20207;-87
2023/12/20 01:51:04;;;;;;;5.67;2.90;;;;;;;;;;5054576;28;20179;-87
2023/12/20 01:54:08;;;;;;;10.43;4.80;;;;;;;;;;5066468;28;20179;-87
2023/12/20 01:57:15;;;;;;;15.50;7.80;;;;;;;;;;5078471;28;20211;-87
2023/12/20 02:00:23;;;;;;;26.07;11.00;;;;;;;;;;5065969;28;20175;-86
2023/12/20 02:03:27;;;;;;;18.77;9.33;;;;;;;;;;5065618;28;20180;-88
2023/12/20 02:06:33;;;;;;;8.73;5.07;;;;;;;;;;5064703;28;20223;-87
2023/12/20 02:09:39;;;;;;;3.03;2.20;;;;;;;;;;5053592;28;20223;-87
2023/12/20 02:12:43;;;;;;;3.37;2.03;;;;;;;;;;5077585;28;20180;-88
2023/12/20 02:15:47;;;;;;;2.73;1.97;;;;;;;;;;5064730;28;20219;-87
2023/12/20 02:18:52;;;;;;;2.20;1.50;;;;;;;;;;5065011;28;20179;-87
2023/12/20 02:22:08;;;;;;;1.60;1.50;;;;;;;;;;5065151;28;20179;-87
2023/12/20 02:25:11;;;;;;;2.17;1.50;;;;;;;;;;5053023;28;20664;-87
2023/12/20 02:28:16;;;;;;;2.27;1.57;;;;;;;;;;5065192;28;20207;-88
2023/12/20 02:31:22;;;;;;;2.17;1.50;;;;;;;;;;5053859;28;20183;-87
2023/12/20 02:34:26;;;;;;;2.17;1.50;;;;;;;;;;5053111;28;20183;-87
2023/12/20 02:37:30;;;;;;;1.77;1.30;;;;;;;;;;5052824;28;20207;-87
2023/12/20 02:40:34;;;;;;;1.37;1.20;;;;;;;;;;5064473;28;20628;-87
2023/12/20 02:43:40;;;;;;;1.83;1.50;;;;;;;;;;5052603;28;20642;-87
2023/12/20 02:46:44;;;;;;;1.53;1.23;;;;;;;;;;5076217;28;20215;-87
2023/12/20 02:49:49;;;;;;;2.00;1.40;;;;;;;;;;5064216;28;20551;-87
2023/12/20 02:52:53;;;;;;;1.93;1.33;;;;;;;;;;5077176;28;20522;-87
2023/12/20 02:55:57;;;;;;;1.90;1.50;;;;;;;;;;5052896;28;20222;-87
2023/12/20 02:59:01;;;;;;;1.50;1.30;;;;;;;;;;5063753;28;20179;-87
2023/12/20 03:02:05;;;;;;;1.60;1.40;;;;;;;;;;5063993;28;20176;-87
2023/12/20 03:05:10;;;;;;;2.03;1.50;;;;;;;;;;5076723;28;20195;-87
2023/12/20 03:08:14;;;;;;;2.60;1.53;;;;;;;;;;5075751;28;20223;-86
2023/12/20 03:11:18;;;;;;;2.23;1.57;;;;;;;;;;5063727;28;20179;-87
2023/12/20 03:14:22;;;;;;;1.77;1.40;;;;;;;;;;5064380;28;20183;-87
2023/12/20 03:17:26;;;;;;;1.73;1.40;;;;;;;;;;5052020;28;20218;-87
2023/12/20 03:20:34;;;;;;;2.10;1.73;;;;;;;;;;5076905;28;20179;-87
2023/12/20 03:23:38;;;;;;;1.67;1.43;;;;;;;;;;5053781;28;20183;-87
2023/12/20 03:26:42;;;;;;;3.97;1.60;;;;;;;;;;5053774;28;20688;-88
2023/12/20 03:29:46;;;;;;;2.40;1.57;;;;;;;;;;5052010;28;20211;-87
2023/12/20 03:32:50;;;;;;;2.17;1.60;;;;;;;;;;5052019;28;20183;-87
2023/12/20 03:35:54;;;;;;;2.60;1.73;;;;;;;;;;5063258;28;20285;-87
2023/12/20 03:38:58;;;;;;;2.10;1.50;;;;;;;;;;5075181;28;20176;-88
2023/12/20 03:42:03;;;;;;;2.00;1.50;;;;;;;;;;5062413;28;20179;-87
2023/12/20 03:45:09;;;;;;;2.43;1.60;;;;;;;;;;5062900;28;20179;-87
2023/12/20 03:48:13;;;;;;;1.77;1.47;;;;;;;;;;5051283;28;20522;-88
2023/12/20 03:51:17;;;;;;;2.77;1.60;;;;;;;;;;5062386;28;20179;-88
2023/12/20 03:54:21;;;;;;;3.80;1.83;;;;;;;;;;5054210;28;20179;-88
2023/12/20 03:57:25;;;;;;;1.70;1.50;;;;;;;;;;5069061;28;20692;-87
2023/12/20 04:00:29;;;;;;;1.70;1.50;;;;;;;;;;5069101;28;20179;-88
2023/12/20 04:03:34;;;;;;;1.90;1.57;;;;;;;;;;5081340;28;20524;-88
2023/12/20 04:06:38;;;;;;;2.17;1.50;;;;;;;;;;5071186;28;20222;-87
2023/12/20 04:09:42;;;;;;;2.43;1.70;;;;;;;;;;5071554;28;20668;-87
2023/12/20 04:12:46;;;;;;;2.47;1.80;;;;;;;;;;5060907;28;20176;-88
2023/12/20 04:15:51;;;;;;;2.57;1.70;;;;;;;;;;5060510;28;20210;-88
2023/12/20 04:18:56;;;;;;;2.13;1.70;;;;;;;;;;5074316;28;20176;-87
2023/12/20 04:22:00;;;;;;;2.17;1.63;;;;;;;;;;5072670;28;20179;-87
2023/12/20 04:25:05;;;;;;;4.87;2.00;;;;;;;;;;5085539;28;20184;-87
2023/12/20 04:28:09;;;;;;;2.50;2.00;;;;;;;;;;5086549;28;20177;-87
2023/12/20 04:31:13;;;;;;;2.90;2.10;;;;;;;;;;5074374;28;20180;-88
2023/12/20 04:34:18;;;;;;;2.80;2.20;;;;;;;;;;5063090;28;20180;-88
2023/12/20 04:37:22;;;;;;;5.57;2.10;;;;;;;;;;5074153;28;20215;-87
2023/12/20 04:40:26;;;;;;;2.57;2.20;;;;;;;;;;5073837;28;20517;-88
2023/12/20 04:43:31;;;;;;;2.97;2.37;;;;;;;;;;5086296;28;20177;-87
2023/12/20 04:46:35;;;;;;;2.53;2.20;;;;;;;;;;5062324;28;20218;-88
2023/12/20 04:49:39;;;;;;;3.17;2.37;;;;;;;;;;5062000;28;20203;-88
2023/12/20 04:52:43;;;;;;;3.90;2.27;;;;;;;;;;5064180;28;20191;-87
2023/12/20 04:55:48;;;;;;;5.23;2.50;;;;;;;;;;5076200;28;20219;-88
2023/12/20 04:58:52;;;;;;;3.10;2.47;;;;;;;;;;5077872;28;20180;-88
2023/12/20 05:01:57;;;;;;;3.03;2.23;;;;;;;;;;5077774;28;20179;-88
2023/12/20 05:05:01;;;;;;;3.27;2.40;;;;;;;;;;5075761;28;20175;-87
2023/12/20 05:08:06;;;;;;;4.27;2.73;;;;;;;;;;5074848;28;20207;-88
2023/12/20 05:11:13;;;;;;;3.07;2.53;;;;;;;;;;5053856;28;20172;-88
2023/12/20 05:14:17;;;;;;;3.70;2.50;;;;;;;;;;5064984;28;20183;-88
2023/12/20 05:17:21;;;;;;;2.90;2.60;;;;;;;;;;5076904;28;20215;-88
2023/12/20 05:20:25;;;;;;;3.27;2.47;;;;;;;;;;5063482;28;20171;-88
2023/12/20 05:23:30;;;;;;;2.97;2.60;;;;;;;;;;5086458;28;20183;-87
2023/12/20 05:26:34;;;;;;;2.73;2.37;;;;;;;;;;5050851;28;20215;-87
2023/12/20 05:29:38;;;;;;;3.50;2.33;;;;;;;;;;5073550;28;20211;-88
2023/12/20 05:32:42;;;;;;;2.60;2.10;;;;;;;;;;5062351;28;20179;-88
2023/12/20 05:35:48;;;;;;;2.73;2.37;;;;;;;;;;5072931;28;20230;-87
2023/12/20 05:38:53;;;;;;;2.47;2.07;;;;;;;;;;5061834;28;20520;-87
2023/12/20 05:41:57;;;;;;;2.27;1.90;;;;;;;;;;5073287;28;20184;-88
2023/12/20 05:45:01;;;;;;;2.60;2.13;;;;;;;;;;5073374;28;20179;-88
2023/12/20 05:48:06;;;;;;;2.70;2.10;;;;;;;;;;5072721;28;20179;-88
2023/12/20 05:51:13;;;;;;;4.17;2.30;;;;;;;;;;5060623;28;20175;-88
2023/12/20 05:54:17;;;;;;;3.03;2.03;;;;;;;;;;5084687;28;20171;-87
2023/12/20 05:57:23;;;;;;;3.30;1.97;;;;;;;;;;5060194;28;20219;-88
2023/12/20 06:00:27;;;;;;;2.17;1.73;;;;;;;;;;5083934;28;20172;-88
2023/12/20 06:03:31;;;;;;;1.93;1.73;;;;;;;;;;5071979;28;20180;-88
2023/12/20 06:06:42;;;;;;;2.87;1.77;;;;;;;;;;5084101;28;20226;-89
2023/12/20 06:09:46;;;;;;;1.93;1.73;;;;;;;;;;5073099;28;20204;-86
2023/12/20 06:12:51;;;;;;;2.87;1.70;;;;;;;;;;5060044;28;20181;-88
2023/12/20 06:15:55;;;;;;;2.77;1.53;;;;;;;;;;5059429;28;20211;-87
2023/12/20 06:18:59;;;;;;;2.23;1.80;;;;;;;;;;5071165;28;20184;-87
2023/12/20 06:22:04;;;;;;;1.70;1.60;;;;;;;;;;5070852;28;20180;-88
2023/12/20 06:25:08;;;;;;;1.80;1.60;;;;;;;;;;5070461;28;20180;-88
2023/12/20 06:28:14;;;;;;;2.07;1.60;;;;;;;;;;5059069;28;20530;-88
2023/12/20 06:31:18;;;;;;;3.53;1.70;;;;;;;;;;5058821;28;20537;-88
2023/12/20 06:34:23;;;;;;;2.33;2.13;;;;;;;;;;5082613;28;20179;-89
2023/12/20 06:37:28;;;;;;;2.10;1.70;;;;;;;;;;5070645;28;20211;-89
2023/12/20 06:40:32;;;;;;;2.17;1.70;;;;;;;;;;5070223;28;20629;-88
2023/12/20 06:43:37;;;;;;;4.77;2.00;;;;;;;;;;5047858;28;20183;-88
2023/12/20 06:46:41;;;;;;;2.37;1.93;;;;;;;;;;5069492;28;20210;-88
2023/12/20 06:49:45;;;;;;;2.50;2.10;;;;;;;;;;5069032;28;20203;-88
2023/12/20 06:52:50;;;;;;;2.43;2.00;;;;;;;;;;5068949;28;20180;-88
2023/12/20 06:55:56;;;;;;;4.03;1.90;;;;;;;;;;5067879;28;20215;-88
2023/12/20 06:59:00;;;;;;;4.30;2.50;;;;;;;;;;5067306;28;20171;-89
2023/12/20 07:02:05;;;;;;;6.87;4.10;;;;;;;;;;5067327;28;20179;-88
2023/12/20 07:05:09;;;;;;;4.13;3.13;;;;;;;;;;5056926;28;20179;-89
2023/12/20 07:08:15;;;;;;;3.43;2.70;;;;;;;;;;5056975;28;20211;-88
2023/12/20 07:11:20;;;;;;;3.27;2.87;;;;;;;;;;5066866;28;20231;-88
2023/12/20 07:14:25;;;;;;;3.23;2.70;;;;;;;;;;5055963;28;20180;-85
2023/12/20 07:17:30;;;;;;;3.00;2.70;;;;;;;;;;5043855;28;20207;-87
2023/12/20 07:20:34;;;;;;;2.90;2.50;;;;;;;;;;5078232;28;20168;-88
2023/12/20 07:23:38;;;;;;;12.90;8.07;;;;;;;;;;5078490;28;20171;-87
2023/12/20 07:26:42;;;;;;;10.70;7.00;;;;;;;;;;5054273;28;20211;-88
2023/12/20 07:29:47;;;;;;;2.60;2.40;;;;;;;;;;5065428;28;20211;-87
2023/12/20 07:32:52;;;;;;;3.90;3.47;;;;;;;;;;5046230;28;20628;-88
2023/12/20 07:35:56;;;;;;;3.80;2.80;;;;;;;;;;5078639;28;20219;-85
2023/12/20 07:39:01;;;;;;;4.10;2.70;;;;;;;;;;5067325;28;20176;-86
2023/12/20 07:42:05;;;;;;;3.53;2.90;;;;;;;;;;5079562;28;20176;-86
2023/12/20 07:45:10;;;;;;;4.37;2.60;;;;;;;;;;5066331;28;20637;-86
2023/12/20 07:48:15;;;;;;;3.20;2.40;;;;;;;;;;5054108;28;20191;-86
2023/12/20 07:51:21;;;;;;;11.97;8.20;;;;;;;;;;5065851;28;20207;-87
2023/12/20 07:54:25;;;;;;;4.90;3.20;;;;;;;;;;5078614;28;20521;-85
2023/12/20 07:57:30;;;;;;;2.90;2.57;;;;;;;;;;5054469;28;20704;-87
2023/12/20 08:00:34;;;;;;;2.67;2.23;;;;;;;;;;5055191;28;20172;-86
2023/12/20 08:03:39;;;;;;;2.53;2.20;;;;;;;;;;5064842;28;20175;-87
2023/12/20 08:06:43;;;;;;;3.97;2.30;;;;;;;;;;5054934;28;20223;-87
2023/12/20 08:09:47;;;;;;;5.43;2.10;;;;;;;;;;5054663;28;20207;-86
2023/12/20 08:12:52;;;;;;;2.87;2.00;;;;;;;;;;5054254;28;20183;-86
2023/12/20 08:15:56;;;;;;;2.40;2.00;;;;;;;;;;5067995;28;20215;-87
2023/12/20 08:19:01;;;;;;;4.03;2.10;;;;;;;;;;5058242;28;20183;-86
2023/12/20 08:22:05;;;;;;;2.60;2.00;;;;;;;;;;5068148;28;20520;-85
2023/12/20 08:25:09;;;;;;;2.60;2.00;;;;;;;;;;5067511;28;20180;-87
2023/12/20 08:28:13;;;;;;;2.67;2.00;;;;;;;;;;5079784;28;20179;-86
2023/12/20 08:31:18;;;;;;;3.00;2.00;;;;;;;;;;5054408;28;20208;-86
2023/12/20 08:34:26;;;;;;;1.97;1.73;;;;;;;;;;5054795;28;20179;-86
2023/12/20 08:37:31;;;;;;;2.90;2.50;;;;;;;;;;5064463;28;20210;-87
2023/12/20 08:40:35;;;;;;;3.93;1.90;;;;;;;;;;5078143;28;20168;-87
2023/12/20 08:43:42;;;;;;;1.97;1.70;;;;;;;;;;5057317;28;20180;-86
2023/12/20 08:46:47;;;;;;;3.67;2.07;;;;;;;;;;5068502;28;20695;-87
2023/12/20 08:49:56;;;;;;;2.30;1.83;;;;;;;;;;5080442;28;20675;-87
2023/12/20 08:53:01;;;;;;;2.20;1.80;;;;;;;;;;5068373;28;20180;-86
2023/12/20 08:56:05;;;;;;;4.93;3.07;;;;;;;;;;5045559;28;20214;-87
2023/12/20 08:59:09;;;;;;;1.73;1.60;;;;;;;;;;5080321;28;20176;-87
2023/12/20 09:02:14;;;;;;;2.20;2.00;;;;;;;;;;5080477;28;20171;-87
2023/12/20 09:05:18;;;;;;;2.17;1.77;;;;;;;;;;5059339;28;20195;-85
2023/12/20 09:08:22;;;;;;;1.97;1.77;;;;;;;;;;5083359;28;20172;-87
2023/12/20 09:11:26;;;;;;;2.60;2.40;;;;;;;;;;5069461;28;20556;-86
2023/12/20 09:14:30;;;;;;;2.77;2.40;;;;;;;;;;5083627;28;20632;-86
2023/12/20 09:17:35;;;;;;;3.07;2.20;;;;;;;;;;5081615;28;20207;-85
2023/12/20 09:20:39;;;;;;;3.27;2.40;;;;;;;;;;5081333;28;20167;-86
2023/12/20 09:23:43;;;;;;;3.60;2.60;;;;;;;;;;5079217;28;20640;-85
2023/12/20 09:26:47;;;;;;;4.03;3.00;;;;;;;;;;5066641;28;20207;-85
2023/12/20 09:29:51;;;;;;;2.97;2.67;;;;;;;;;;5066163;28;20175;-85
2023/12/20 09:32:57;;;;;;;5.23;3.13;;;;;;;;;;5066053;28;20176;-86
2023/12/20 09:36:02;;;;;;;4.90;3.30;;;;;;;;;;5054604;28;20218;-86
2023/12/20 09:39:06;;;;;;;5.03;4.10;;;;;;;;;;5066275;28;20188;-87
2023/12/20 09:42:16;;;;;;;5.73;3.87;;;;;;;;;;5078979;28;20172;-86
2023/12/20 09:45:24;;;;;;;6.13;3.77;;;;;;;;;;5054515;28;20188;-85
2023/12/20 09:48:28;;;;;;;6.17;5.10;;;;;;;;;;5066330;28;20187;-87
2023/12/20 09:51:33;;;;;;;4.60;4.10;;;;;;;;;;5065748;28;20672;-86
2023/12/20 09:54:40;;;;;;;7.30;4.90;;;;;;;;;;5054706;28;20188;-86
2023/12/20 09:57:45;;;;;;;5.83;4.73;;;;;;;;;;5054663;28;20175;-87
2023/12/20 10:00:51;;;;;;;5.60;4.83;;;;;;;;;;5066265;28;20171;-86
2023/12/20 10:03:56;;;;;;;10.50;9.00;;;;;;;;;;5054633;28;20179;-86
2023/12/20 10:07:03;;;;;;;4.60;3.67;;;;;;;;;;5066193;28;20227;-86
2023/12/20 10:10:08;;;;;;;3.93;3.43;;;;;;;;;;5054898;28;20187;-85
2023/12/20 10:13:13;;;;;;;3.70;3.20;;;;;;;;;;5065794;28;20176;-87
2023/12/20 10:16:17;;;;;;;4.53;3.60;;;;;;;;;;5065393;28;20214;-86
2023/12/20 10:19:22;;;;;;;4.97;3.70;;;;;;;;;;5077493;28;20175;-87
2023/12/20 10:22:29;;;;;;;3.40;2.90;;;;;;;;;;5065584;28;20537;-87
2023/12/20 10:25:33;;;;;;;4.77;3.33;;;;;;;;;;5053879;28;20691;-87
2023/12/20 10:28:38;;;;;;;3.83;3.43;;;;;;;;;;5064902;28;20188;-87
2023/12/20 10:31:42;;;;;;;3.47;2.73;;;;;;;;;;5052554;28;20211;-87
2023/12/20 10:34:50;;;;;;;2.67;2.20;;;;;;;;;;5053112;28;20179;-86
2023/12/20 10:38:29;;;;;;;5.23;3.20;;;;;;;;;;5055432;28;20636;-86
2023/12/20 10:41:33;;;;;;;2.50;2.27;;;;;;;;;;5065311;28;20239;-86
2023/12/20 10:44:37;;;;;;;4.60;4.20;;;;;;;;;;5064666;28;20628;-85
2023/12/20 10:47:42;;;;;;;3.57;2.90;;;;;;;;;;5053163;28;20184;-87
2023/12/20 10:50:47;;;;;;;3.10;2.73;;;;;;;;;;5076573;28;20215;-86
2023/12/20 10:53:53;;;;;;;3.77;2.53;;;;;;;;;;5053139;28;20644;-86
2023/12/20 10:56:57;;;;;;;2.83;2.50;;;;;;;;;;5053460;28;20218;-86
2023/12/20 11:00:05;;;;;;;2.50;2.13;;;;;;;;;;5065461;28;20175;-85
2023/12/20 11:03:17;;;;;;;3.53;2.30;;;;;;;;;;5052536;28;20525;-90
2023/12/20 11:06:56;;;;;;;8.90;6.10;;;;;;;;;;5052907;28;20222;-87
2023/12/20 11:10:23;;;;;;;3.23;2.73;;;;;;;;;;5064639;28;20175;-86
2023/12/20 11:13:32;;;;;;;3.77;3.33;;;;;;;;;;5052839;28;20184;-86
2023/12/20 11:16:37;;;;;;;1.70;1.60;;;;;;;;;;5076141;28;20215;-87
2023/12/20 11:19:57;;;;;;;2.10;1.90;;;;;;;;;;5053306;28;20184;-86
2023/12/20 11:23:02;;;;;;;3.40;2.47;;;;;;;;;;5056464;28;20633;-85
2023/12/20 11:26:06;;;;;;;2.57;1.47;;;;;;;;;;5066771;28;20692;-84
2023/12/20 11:29:35;;;;;;;1.40;1.30;;;;;;;;;;5066530;28;20176;-84
2023/12/20 11:32:40;;;;;;;1.33;1.23;;;;;;;;;;5079265;28;20211;-84
2023/12/20 11:35:46;;;;;;;2.80;1.40;;;;;;;;;;5066626;28;20215;-85
2023/12/20 11:38:57;;;;;;;1.40;1.30;;;;;;;;;;5066585;28;20180;-84
2023/12/20 11:42:06;;;;;;;1.43;1.33;;;;;;;;;;5067286;28;20633;-84
2023/12/20 11:45:15;;;;;;;2.87;1.50;;;;;;;;;;5078057;28;20184;-85
2023/12/20 11:48:19;;;;;;;1.53;1.43;;;;;;;;;;5055850;28;20176;-84
2023/12/20 11:51:24;;;;;;;1.70;1.30;;;;;;;;;;5068753;28;20203;-85
2023/12/20 11:54:30;;;;;;;10.83;6.37;;;;;;;;;;5056837;28;20179;-86
2023/12/20 11:57:35;;;;;;;14.67;8.80;;;;;;;;;;5069003;28;20692;-85
2023/12/20 12:00:41;;;;;;;10.03;7.60;;;;;;;;;;5054296;28;20520;-86
2023/12/20 12:03:45;;;;;;;6.20;4.53;;;;;;;;;;5054349;28;20180;-87
2023/12/20 12:06:49;;;;;;;8.30;4.93;;;;;;;;;;5065590;28;20226;-87
2023/12/20 12:09:54;;;;;;;5.10;3.97;;;;;;;;;;5054404;28;20179;-86
2023/12/20 12:12:58;;;;;;;2.87;2.10;;;;;;;;;;5044468;28;20540;-86
2023/12/20 12:16:02;;;;;;;2.50;2.20;;;;;;;;;;5068816;28;20215;-86
2023/12/20 12:19:06;;;;;;;2.00;1.80;;;;;;;;;;5079931;28;20179;-86
2023/12/20 12:22:13;;;;;;;1.90;1.70;;;;;;;;;;5057005;28;20628;-86
2023/12/20 12:25:18;;;;;;;1.67;1.57;;;;;;;;;;5081044;28;20183;-85
2023/12/20 12:28:31;;;;;;;1.60;1.50;;;;;;;;;;5057131;28;20175;-86
2023/12/20 12:31:35;;;;;;;3.27;2.20;;;;;;;;;;5057203;28;20207;-86
2023/12/20 12:34:40;;;;;;;2.03;1.10;;;;;;;;;;5057101;28;20175;-86
2023/12/20 12:37:44;;;;;;;2.13;1.73;;;;;;;;;;5057536;28;20171;-87
2023/12/20 12:40:49;;;;;;;3.03;2.57;;;;;;;;;;5070958;28;20179;-87
2023/12/20 12:43:53;;;;;;;3.03;1.60;;;;;;;;;;5071259;28;20179;-87
2023/12/20 12:46:58;;;;;;;1.93;1.30;;;;;;;;;;5070749;28;20226;-87
2023/12/20 12:50:02;;;;;;;2.67;1.33;;;;;;;;;;5071378;28;20648;-87
2023/12/20 12:53:09;;;;;;;3.07;1.83;;;;;;;;;;5062200;28;20211;-87
2023/12/20 12:56:14;;;;;;;5.27;2.03;;;;;;;;;;5062040;28;20211;-87
2023/12/20 12:59:18;;;;;;;5.37;2.23;;;;;;;;;;5045600;28;20175;-87
2023/12/20 13:02:23;;;;;;;3.60;1.77;;;;;;;;;;5056836;28;20517;-84
2023/12/20 13:05:27;;;;;;;4.90;1.20;;;;;;;;;;5068996;28;20652;-87
2023/12/20 13:08:32;;;;;;;4.07;1.70;;;;;;;;;;5068536;28;20171;-87
2023/12/20 13:11:36;;;;;;;3.50;1.83;;;;;;;;;;5067977;28;20203;-87
2023/12/20 13:14:40;;;;;;;4.07;1.30;;;;;;;;;;5068215;28;20628;-87
2023/12/20 13:17:46;;;;;;;4.40;2.23;;;;;;;;;;5069285;28;20180;-87
2023/12/20 13:20:50;;;;;;;5.90;3.00;;;;;;;;;;5069772;28;20179;-87
2023/12/20 13:23:54;;;;;;;8.73;3.53;;;;;;;;;;5068044;28;20175;-86
2023/12/20 13:26:58;;;;;;;6.53;2.90;;;;;;;;;;5054893;28;20215;-85
2023/12/20 13:30:03;;;;;;;6.77;2.60;;;;;;;;;;5067330;28;20183;-85
2023/12/20 13:33:07;;;;;;;6.10;1.90;;;;;;;;;;5066834;28;20207;-86
2023/12/20 13:36:12;;;;;;;3.67;1.27;;;;;;;;;;5055638;28;20215;-85
2023/12/20 13:39:16;;;;;;;6.63;1.77;;;;;;;;;;5079974;28;20179;-85
2023/12/20 13:42:20;;;;;;;1.63;1.10;;;;;;;;;;5067449;28;20640;-85
2023/12/20 13:45:25;;;;;;;3.43;1.10;;;;;;;;;;5064191;28;20203;-85
2023/12/20 13:48:29;;;;;;;4.40;1.40;;;;;;;;;;5046137;28;20176;-86
2023/12/20 13:51:33;;;;;;;2.73;1.10;;;;;;;;;;5065454;28;20223;-85
2023/12/20 13:54:38;;;;;;;7.83;3.73;;;;;;;;;;5054519;28;20191;-86
2023/12/20 13:57:42;;;;;;;17.33;7.33;;;;;;;;;;5066805;28;20171;-85
2023/12/20 14:00:46;;;;;;;7.13;3.07;;;;;;;;;;5078805;28;20180;-87
2023/12/20 14:03:50;;;;;;;5.33;2.67;;;;;;;;;;5055428;28;20628;-86
2023/12/20 14:06:54;;;;;;;2.90;1.10;;;;;;;;;;5078248;28;20219;-85
2023/12/20 14:09:59;;;;;;;1.67;0.90;;;;;;;;;;5065547;28;20184;-85
2023/12/20 14:13:03;;;;;;;2.27;1.10;;;;;;;;;;5065442;28;20203;-85
2023/12/20 14:16:07;;;;;;;4.00;1.27;;;;;;;;;;5077748;28;20215;-86
2023/12/20 14:19:11;;;;;;;6.67;1.60;;;;;;;;;;5066688;28;20179;-87
2023/12/20 14:22:16;;;;;;;2.53;1.10;;;;;;;;;;5055073;28;20171;-87
2023/12/20 14:25:22;;;;;;;3.73;1.40;;;;;;;;;;5065520;28;20183;-86
2023/12/20 14:28:26;;;;;;;3.90;2.20;;;;;;;;;;5054262;28;20171;-86
2023/12/20 14:31:32;;;;;;;3.00;1.90;;;;;;;;;;5063960;28;20203;-84
2023/12/20 14:34:37;;;;;;;6.83;4.10;;;;;;;;;;5054832;28;20175;-87
2023/12/20 14:37:43;;;;;;;7.00;2.57;;;;;;;;;;5054456;28;20518;-85
2023/12/20 14:40:47;;;;;;;3.13;2.10;;;;;;;;;;5077682;28;20188;-85
2023/12/20 14:43:53;;;;;;;4.03;1.80;;;;;;;;;;5053994;28;20172;-85
2023/12/20 14:46:57;;;;;;;6.57;1.73;;;;;;;;;;5077515;28;20215;-84
2023/12/20 14:50:06;;;;;;;2.37;1.23;;;;;;;;;;5053239;28;20179;-86
2023/12/20 14:53:11;;;;;;;2.80;1.40;;;;;;;;;;5064334;28;20212;-85
2023/12/20 14:56:16;;;;;;;6.13;1.53;;;;;;;;;;5052850;28;20215;-86
2023/12/20 14:59:21;;;;;;;4.20;1.37;;;;;;;;;;5075761;28;20175;-86
2023/12/20 15:02:25;;;;;;;7.17;1.50;;;;;;;;;;5077189;28;20179;-85
2023/12/20 15:05:30;;;;;;;3.50;1.53;;;;;;;;;;5077250;28;20195;-85
2023/12/20 15:08:34;;;;;;;5.57;3.30;;;;;;;;;;5053363;28;20176;-85
2023/12/20 15:11:38;;;;;;;3.53;2.10;;;;;;;;;;5052720;28;20179;-86
2023/12/20 15:14:42;;;;;;;2.37;1.20;;;;;;;;;;5064304;28;20187;-85
2023/12/20 15:17:47;;;;;;;4.13;1.30;;;;;;;;;;5052920;28;20171;-87
2023/12/20 15:20:52;;;;;;;4.57;1.40;;;;;;;;;;5065095;28;20188;-86
2023/12/20 15:24:05;;;;;;;3.70;1.50;;;;;;;;;;5053864;28;20175;-85
2023/12/20 15:27:10;;;;;;;2.93;1.40;;;;;;;;;;5055283;28;20223;-85
2023/12/20 15:30:18;;;;;;;2.17;1.27;;;;;;;;;;5079586;28;20183;-84
2023/12/20 15:33:25;;;;;;;2.93;1.30;;;;;;;;;;5067031;28;20204;-86
2023/12/20 15:36:30;;;;;;;8.10;5.77;;;;;;;;;;5069322;28;20211;-85
2023/12/20 15:39:34;;;;;;;16.20;8.13;;;;;;;;;;5069556;28;20176;-84
2023/12/20 15:42:40;;;;;;;8.70;5.10;;;;;;;;;;5045299;28;20171;-84
2023/12/20 15:45:45;;;;;;;6.83;2.90;;;;;;;;;;5057679;28;20215;-86
2023/12/20 15:48:52;;;;;;;4.70;2.17;;;;;;;;;;5057266;28;20180;-84
2023/12/20 15:51:56;;;;;;;6.40;1.80;;;;;;;;;;5067204;28;20628;-83
2023/12/20 15:55:01;;;;;;;4.83;2.10;;;;;;;;;;5045144;28;20179;-84
2023/12/20 15:58:05;;;;;;;3.93;1.90;;;;;;;;;;5067603;28;20171;-84
2023/12/20 16:01:09;;;;;;;3.90;1.50;;;;;;;;;;5068328;28;20279;-84
2023/12/20 16:04:15;;;;;;;4.80;1.83;;;;;;;;;;5068303;28;20179;-84
2023/12/20 16:07:19;;;;;;;2.33;1.27;;;;;;;;;;5055319;28;20230;-85
2023/12/20 16:10:24;;;;;;;5.87;1.90;;;;;;;;;;5044718;28;20171;-84
2023/12/20 16:13:30;;;;;;;3.00;1.83;;;;;;;;;;5045337;28;20207;-84
2023/12/20 16:16:35;;;;;;;3.67;1.30;;;;;;;;;;5069297;28;20219;-85
2023/12/20 16:19:40;;;;;;;5.40;1.50;;;;;;;;;;5081614;28;20529;-85
2023/12/20 16:22:44;;;;;;;5.63;1.37;;;;;;;;;;5058196;28;20632;-84
2023/12/20 16:25:47;;;;;;;2.87;1.43;;;;;;;;;;5057265;28;20223;-84
2023/12/20 16:28:52;;;;;;;2.77;1.30;;;;;;;;;;5057492;28;20175;-84
2023/12/20 16:31:56;;;;;;;2.93;1.63;;;;;;;;;;5066948;28;20180;-84
2023/12/20 16:35:01;;;;;;;6.23;1.70;;;;;;;;;;5066360;28;20179;-83
2023/12/20 16:38:05;;;;;;;6.40;1.40;;;;;;;;;;5067434;28;20183;-84
2023/12/20 16:41:10;;;;;;;3.40;1.50;;;;;;;;;;5066999;28;20660;-84
2023/12/20 16:44:16;;;;;;;5.43;2.53;;;;;;;;;;5068069;28;20176;-84
2023/12/20 16:47:20;;;;;;;4.37;1.83;;;;;;;;;;5057143;28;20223;-84
2023/12/20 16:50:25;;;;;;;3.20;1.40;;;;;;;;;;5057210;28;20180;-84
2023/12/20 16:53:29;;;;;;;3.87;1.17;;;;;;;;;;5057399;28;20207;-83
2023/12/20 16:56:34;;;;;;;3.53;1.30;;;;;;;;;;5067191;28;20556;-85
2023/12/20 16:59:42;;;;;;;4.07;1.60;;;;;;;;;;5065867;28;20176;-84
2023/12/20 17:02:46;;;;;;;4.10;1.17;;;;;;;;;;5067433;28;20176;-83
2023/12/20 17:05:50;;;;;;;2.37;1.37;;;;;;;;;;5057361;28;20568;-83
2023/12/20 17:08:54;;;;;;;2.70;1.20;;;;;;;;;;5068616;28;20176;-84
2023/12/20 17:11:58;;;;;;;4.03;1.20;;;;;;;;;;5046305;28;20191;-84
2023/12/20 17:15:03;;;;;;;5.30;1.80;;;;;;;;;;5058319;28;20168;-84
2023/12/20 17:18:08;;;;;;;3.87;2.23;;;;;;;;;;5058977;28;20180;-83
2023/12/20 17:21:13;;;;;;;6.87;2.43;;;;;;;;;;5072077;28;20179;-83
2023/12/20 17:24:18;;;;;;;6.00;3.13;;;;;;;;;;5061044;28;20627;-84
2023/12/20 17:27:21;;;;;;;15.73;8.63;;;;;;;;;;5069999;28;20219;-85
2023/12/20 17:30:26;;;;;;;12.57;5.37;;;;;;;;;;5070009;28;20179;-85
2023/12/20 17:33:30;;;;;;;5.27;2.30;;;;;;;;;;5058891;28;20211;-84
2023/12/20 17:36:34;;;;;;;6.27;2.80;;;;;;;;;;5072248;28;20223;-83
2023/12/20 17:39:38;;;;;;;3.30;1.60;;;;;;;;;;5058999;28;20183;-84
2023/12/20 17:42:44;;;;;;;4.13;2.47;;;;;;;;;;5059163;28;20176;-83
2023/12/20 17:45:49;;;;;;;3.03;1.73;;;;;;;;;;5071832;28;20219;-84
2023/12/20 17:48:53;;;;;;;4.33;1.77;;;;;;;;;;5072255;28;20180;-83
2023/12/20 17:51:57;;;;;;;6.93;1.60;;;;;;;;;;5072914;28;20176;-83
2023/12/20 17:55:03;;;;;;;1.93;1.73;;;;;;;;;;5061629;28;20175;-83
2023/12/20 17:58:08;;;;;;;2.40;1.60;;;;;;;;;;5062184;28;20172;-84
2023/12/20 18:01:14;;;;;;;3.53;1.10;;;;;;;;;;5062070;28;20184;-83
2023/12/20 18:04:20;;;;;;;2.87;1.20;;;;;;;;;;5063676;28;20628;-84
2023/12/20 18:07:24;;;;;;;3.40;1.67;;;;;;;;;;5073574;28;20573;-83
2023/12/20 18:10:28;;;;;;;3.67;1.73;;;;;;;;;;5075592;28;20187;-84
2023/12/20 18:13:33;;;;;;;6.77;1.43;;;;;;;;;;5052385;28;20207;-84
2023/12/20 18:16:38;;;;;;;4.57;1.30;;;;;;;;;;5052861;28;20223;-84
2023/12/20 18:19:42;;;;;;;12.30;5.40;;;;;;;;;;5075846;28;20180;-84
2023/12/20 18:22:46;;;;;;;29.00;15.73;;;;;;;;;;5076071;28;20179;-84
2023/12/20 18:25:53;;;;;;;22.63;12.17;;;;;;;;;;5074992;28;20223;-84
2023/12/20 18:28:57;;;;;;;7.97;4.73;;;;;;;;;;5075874;28;20537;-84